ADDS METAR Data INFO
IDs: Format: Raw Decoded Include TAF

Data at: 0144 UTC 26 Feb 2018

KPOF 260053Z AUTO 00000KT 10SM CLR 08/02 A3012 RMK AO2 SLP202 T00830022
KPOF 252353Z AUTO 00000KT 10SM CLR 09/02 A3011 RMK AO2 SLP198 T00940017 10111 20089 55004
KPOF 252253Z AUTO 15004KT 10SM CLR 10/02 A3010 RMK AO2 SLP195 T01000022
KPOF 252153Z AUTO VRB05KT 10SM CLR 11/02 A3010 RMK AO2 SLP196 T01060022
KPOF 252053Z AUTO 16007KT 10SM CLR 11/02 A3012 RMK AO2 SLP201 T01060022 55005
KPOF 251953Z AUTO 14006KT 10SM CLR 11/01 A3010 RMK AO2 SLP196 T01060011
KPOF 251853Z AUTO 00000KT 10SM CLR 10/M01 A3012 RMK AO2 SLP201 T01001006
KPOF 251753Z AUTO 00000KT 9SM CLR 09/00 A3013 RMK AO2 SLP205 T00940000 10094 20039 58005
KPOF 251653Z AUTO 00000KT 10SM CLR 08/00 A3016 RMK AO2 SLP213 T00830000
KPOF 251553Z AUTO 23004KT 10SM CLR 07/01 A3016 RMK AO2 SLP214 T00720006
KPOF 251453Z AUTO 00000KT 10SM CLR 06/01 A3015 RMK AO2 SLP210 T00560006 53023
KPOF 251353Z AUTO 00000KT 10SM CLR 06/01 A3011 RMK AO2 SLP198 T00560006
KPOF 251253Z AUTO 28003KT 10SM CLR 04/01 A3010 RMK AO2 SLP193 T00390006
KPOF 251153Z AUTO 22003KT 10SM CLR 04/01 A3008 RMK AO2 SLP187 70241 T00440006 10111 20044 53027
KPOF 251053Z AUTO 31004KT 10SM CLR 05/01 A3004 RMK AO2 SLP173 T00500006
KPOF 250953Z AUTO 29006KT 10SM CLR 06/01 A3002 RMK AO2 SLP167 T00560011
KPOF 250853Z AUTO 30006KT 10SM CLR 07/01 A3000 RMK AO2 SLP161 T00670011 51031
KPOF 250753Z AUTO 29007G19KT 10SM CLR 08/02 A2998 RMK AO2 PK WND 30028/0658 SLP155 T00780022
KPOF 250713Z AUTO 29015G26KT 10SM SCT028 08/03 A2996 RMK AO2 PK WND 30028/0658 T00830028
KPOF 250653Z AUTO 31015G22KT 10SM BKN028 09/04 A2995 RMK AO2 PRESRR SLP143 T00940044
KPOF 250632Z AUTO 29016G24KT 10SM SCT030 10/04 A2993 RMK AO2 T01000044
KPOF 250611Z AUTO 30009G18KT 10SM BKN028 11/06 A2991 RMK AO2 T01060061
KPOF 250553Z AUTO 28013G22KT 10SM CLR 11/06 A2991 RMK AO2 PK WND 28029/0534 PRESRR SLP128 60007 T01110056 10172 20111 401780094 53056
KPOF 250453Z AUTO 26016G24KT 10SM FEW027 14/09 A2983 RMK AO2 PK WND 25029/0439 SLP102 T01440089
KPOF 250353Z AUTO 26014G24KT 10SM FEW029 SCT036 BKN120 16/13 A2980 RMK AO2 SLP090 T01610128
KPOF 250253Z AUTO 24012G19KT 10SM BKN120 17/15 A2974 RMK AO2 RAE0156 SLP070 P0000 60007 T01720150 53031
KPOF 250223Z AUTO 24011G21KT 10SM FEW017 SCT022 BKN120 17/16 A2972 RMK AO2 RAE0156 P0000 T01720156
KPOF 250153Z AUTO 23012G23KT 8SM -RA SCT017 BKN023 OVC034 17/16 A2971 RMK AO2 PK WND 21026/0103 WSHFT 0043 RAE0055B42 SLP059 P0000 T01720156
KPOF 250103Z AUTO 21015G26KT 10SM FEW021 SCT037 BKN055 17/16 A2966 RMK AO2 PK WND 21026/0103 WSHFT 0043 RAE0055 P0000 T01720156
KPOF 250053Z AUTO 23011KT 10SM -RA FEW039 SCT050 BKN060 17/16 A2966 RMK AO2 PK WND 19028/2355 TSE2357 SLP043 P0007 T01720156
KPOF 250015Z AUTO 21016G25KT 10SM -RA FEW047 BKN090 OVC110 17/15 A2964 RMK AO2 PK WND 19028/2355 LTG DSNT N-SE TSE2357 P0006 T01720150
KPOF 250003Z AUTO 20014G28KT 7SM VCTS RA SCT036 BKN090 OVC110 17/15 A2966 RMK AO2 PK WND 19028/2355 LTG DSNT ALQDS TSE2357 P0003 T01720150
KPOF 242355Z AUTO 19020G30KT 3SM TSRA BR FEW008 OVC034 17/16 A2965 RMK AO2 PK WND 19028/2355 LTG DSNT ALQDS P0001 T01670156
KPOF 242353Z AUTO 19021G30KT 2 1/2SM +TSRA BR BKN034 16/16 A2964 RMK AO2 PK WND 25033/2300 LTG DSNT ALQDS TSE05B28 PRESFR SLP038 P0127 60222 T01610156 10178 20111 58029
KPOF 242343Z AUTO 19017G26KT 2SM +TSRA BR FEW009 OVC019 16/16 A2969 RMK AO2 PK WND 25033/2300 LTG DSNT ALQDS TSE05B28 P0118 T01610161
KPOF 242338Z AUTO 21018G27KT 1SM +TSRA BR FEW011 OVC017 16/16 A2970 RMK AO2 PK WND 25033/2300 LTG DSNT ALQDS TSE05B28 P0111 T01610161
KPOF 242333Z AUTO 23017G28KT 3/4SM +TSRA BR BKN011 BKN017 OVC026 16/16 A2971 RMK AO2 PK WND 25033/2300 LTG DSNT ALQDS TSE05B28 P0085 T01610161
KPOF 242328Z AUTO 24017G28KT 1 1/4SM +TSRA BR SCT011 BKN017 OVC026 17/16 A2973 RMK AO2 PK WND 25033/2300 LTG DSNT ALQDS TSE05B28 PRESRR P0067 T01670156
KPOF 242321Z AUTO 20011G22KT 2 1/2SM VCTS +RA BR FEW009 BKN017 OVC030 17/16 A2970 RMK AO2 PK WND 25033/2300 LTG DSNT ALQDS TSE05 PRESRR P0062 T01670156
KPOF 242315Z AUTO 25011G24KT 1 3/4SM VCTS +RA BR BKN017 OVC027 17/16 A2967 RMK AO2 PK WND 25033/2300 LTG DSNT NE AND SW AND W TSE05 P0056 T01670161
KPOF 242306Z AUTO 26018G33KT 1 1/4SM +RA BR FEW009 BKN015 OVC027 17/16 A2967 RMK AO2 PK WND 25033/2300 LTG DSNT NE AND SW TSE05 P0036 T01720156
KPOF 242302Z AUTO 25021G33KT 1SM +TSRA BR SCT009 BKN015 OVC027 17/16 A2966 RMK AO2 PK WND 25033/2300 LTG DSNT N AND NE PRESFR P0032 T01720156
KPOF 242253Z AUTO 1 1/2SM +TSRA BR FEW007 BKN010 OVC014 17/16 A2968 RMK AO2 WSHFT 2211 LTG DSNT NW-NE TSB02E20B23 SLP052 P0012 T01670161
KPOF 242251Z AUTO 2SM +TSRA BR SCT007 OVC012 17/16 A2968 RMK AO2 WSHFT 2211 LTG DSNT NW-NE TSB02E20B23 P0007
KPOF 242231Z AUTO 25006G17KT 5SM -TSRA BR BKN007 OVC011 17/16 A2966 RMK AO2 WSHFT 2211 LTG DSNT W AND NW TSB02E20B23 CIG 004V008 P0003 T01670161
KPOF 242208Z AUTO 10004KT 10SM -TSRA OVC005 14/14 A2966 RMK AO2 LTG DSNT N TSB02 CIG 003V008 P0001 T01390139
KPOF 242153Z AUTO 10SM -RA BKN005 OVC010 14/14 A2969 RMK AO2 LTG DSNT W-N TSE01 CIG 003V009 SLP054 P0029 T01390139
KPOF 242143Z AUTO 09005KT 10SM -RA BKN005 OVC008 13/13 A2969 RMK AO2 LTG DSNT W-NE TSE01 CIG 002V007 PRESFR P0029 T01280128
KPOF 242121Z AUTO 31006KT 8SM -RA BKN003 BKN008 OVC025 12/12 A2972 RMK AO2 LTG DSNT NE AND W TSE01 P0025 T01220122
KPOF 242112Z AUTO 01006KT 2SM RA BR SCT007 BKN012 OVC024 12/12 A2971 RMK AO2 LTG DSNT NE AND W TSE01 P0024 T01220122
KPOF 242103Z AUTO 04006KT 1 1/2SM VCTS +RA BR FEW007 BKN012 OVC026 12/12 A2972 RMK AO2 LTG DSNT N-E TSE01 PRESFR P0018 T01220122
KPOF 242101Z AUTO 02007KT 1 1/4SM VCTS RA BR SCT012 BKN018 OVC026 12/12 A2972 RMK AO2 LTG DSNT N-E TSE01 P0016 T01220122
KPOF 242053Z AUTO 07006KT 1/2SM +TSRA FG SCT012 BKN018 OVC026 12/12 A2973 RMK AO2 LTG DSNT N-SE TSB46 SLP068 P0036 60054 T01220122 58044
KPOF 242051Z AUTO 08005KT 1/2SM +TSRA FG SCT012 BKN018 OVC027 12/12 A2974 RMK AO2 LTG DSNT N-SE TSB46 P0027
KPOF 242046Z AUTO 33005KT 1 1/4SM +TSRA BR BKN012 OVC027 12/12 A2976 RMK AO2 LTG DSNT N-SE TSB46 PRESRR P0017 T01220122
KPOF 242031Z AUTO 05007KT 1 3/4SM +RA BR FEW003 BKN029 OVC055 12/12 A2974 RMK AO2 LTG DSNT SE AND W P0011 T01220122
KPOF 242027Z AUTO 05008KT 2 1/2SM RA BR FEW003 BKN032 OVC100 12/12 A2973 RMK AO2 LTG DSNT ALQDS PRESFR P0008 T01220122
KPOF 242002Z AUTO 10004KT 4SM -RA BR BKN004 BKN012 OVC095 12/12 A2978 RMK AO2 LTG DSNT E-S P0002 T01170117
KPOF 241953Z AUTO 07003KT 2 1/2SM RA BR BKN004 OVC014 12/12 A2980 RMK AO2 LTG DSNT SE AND S RAB1854 TSB21E36 SLP091 P0018 T01170117
KPOF 241942Z AUTO 35005KT 2SM RA BR OVC004 12/12 A2979 RMK AO2 LTG DSNT SE AND S RAB1854 TSB21E36 P0014 T01170117
KPOF 241935Z AUTO 01004KT 2SM TSRA BR OVC003 12/12 A2980 RMK AO2 LTG DSNT ALQDS RAB1854 TSB21 P0010 T01170117
KPOF 241921Z AUTO 07003KT 1 3/4SM TSRA BR OVC003 12/12 A2981 RMK AO2 LTG DSNT ALQDS RAB1854 TSB21 P0004 T01170117
KPOF 241915Z AUTO 10003KT 3SM VCTS -RA BR OVC003 12/12 A2981 RMK AO2 LTG DSNT SE AND SW RAB1854 P0000 T01170117
KPOF 241853Z AUTO 08003KT 5SM BR OVC003 12/12 A2982 RMK AO2 LTG DSNT SW SLP099 T01170117
KPOF 241753Z AUTO 08004KT 6SM BR OVC003 11/11 A2986 RMK AO2 PRESFR SLP112 60012 T01110111 10111 20094 58042
KPOF 241737Z AUTO 06005KT 4SM BR OVC003 11/11 A2988 RMK AO2 T01110111
KPOF 241716Z AUTO 05005KT 2SM BR OVC003 11/11 A2989 RMK AO2 PRESFR T01060106
KPOF 241703Z AUTO 04004KT 4SM BR OVC003 11/11 A2992 RMK AO2 T01060106
KPOF 241653Z AUTO 06004KT 4SM BR OVC004 11/10 A2992 RMK AO2 SLP134 T01060100
KPOF 241616Z AUTO 05007KT 3SM BR OVC004 11/10 A2994 RMK AO2 T01060100
KPOF 241553Z AUTO 02005KT 2 1/2SM BR OVC004 11/10 A2996 RMK AO2 RAE14 SLP146 P0003 T01060100
KPOF 241540Z AUTO 01005KT 4SM BR OVC004 11/10 A2997 RMK AO2 RAE14 P0003 T01060100
KPOF 241504Z AUTO 35006KT 4SM -RA BR BKN005 OVC011 10/10 A2998 RMK AO2 P0003 T01000100
KPOF 241453Z AUTO 34007KT 2 1/2SM -RA BR BKN003 BKN009 OVC019 10/09 A2999 RMK AO2 VIS 1 1/2V5 SLP155 P0008 60009 T01000094 53002
KPOF 241424Z AUTO 04006KT 2SM -RA BR OVC003 09/09 A2997 RMK AO2 P0003 T00940094
KPOF 241353Z AUTO 04006KT 1 1/4SM -RA BR OVC003 09/09 A2997 RMK AO2 RAB47 SLP152 P0000 T00940094